Time;durP1;ratioP1;P1;durP2;ratioP2;P2;SDS_P1;SDS_P2;PMS_P1;PMS_P2;Temp;Humidity;BMP_temperature;BMP_pressure;BME280_temperature;BME280_humidity;BME280_pressure;Samples;Min_cycle;Max_cycle;Signal;HPM_P1;HPM_P2
2023/11/27 00:01:22;;;;;;;1.23;1.00;;;;;;;1.95;100.00;97863.41;6101938;19;20005;-75
2023/11/27 00:03:23;;;;;;;1.00;0.90;;;;;;;1.97;100.00;97853.75;6101900;19;20002;-74
2023/11/27 00:05:23;;;;;;;1.27;0.90;;;;;;;1.97;100.00;97861.16;6100902;19;20648;-75
2023/11/27 00:07:24;;;;;;;1.60;1.02;;;;;;;1.97;100.00;97848.28;6101458;19;20003;-74
2023/11/27 00:09:24;;;;;;;0.93;0.90;;;;;;;1.95;100.00;97852.50;6101672;19;20031;-75
2023/11/27 00:11:25;;;;;;;0.95;0.90;;;;;;;1.90;100.00;97842.63;6101934;19;20390;-75
2023/11/27 00:13:25;;;;;;;1.00;0.80;;;;;;;1.90;100.00;97855.44;6102802;19;20463;-75
2023/11/27 00:15:25;;;;;;;1.00;0.90;;;;;;;1.89;100.00;97853.84;6101405;19;20294;-75
2023/11/27 00:17:26;;;;;;;1.58;1.00;;;;;;;1.84;100.00;97852.13;6100259;19;19999;-75
2023/11/27 00:19:26;;;;;;;1.15;1.05;;;;;;;1.83;100.00;97850.56;6101031;19;20226;-75
2023/11/27 00:21:27;;;;;;;1.88;0.80;;;;;;;1.81;100.00;97841.88;6101407;19;20027;-75
2023/11/27 00:23:27;;;;;;;2.00;1.00;;;;;;;1.88;100.00;97841.34;6100900;19;20006;-74
2023/11/27 00:25:27;;;;;;;1.17;0.88;;;;;;;1.86;100.00;97844.41;6101547;19;20620;-75
2023/11/27 00:27:28;;;;;;;0.82;0.80;;;;;;;1.90;100.00;97848.06;6085988;19;20050;-75
2023/11/27 00:29:28;;;;;;;1.08;0.90;;;;;;;1.90;100.00;97836.34;6101124;19;20561;-75
2023/11/27 00:31:28;;;;;;;1.17;1.00;;;;;;;1.91;100.00;97838.75;6098434;19;20006;-75
2023/11/27 00:33:29;;;;;;;1.30;0.90;;;;;;;1.93;100.00;97838.41;6101306;19;20507;-75
2023/11/27 00:35:29;;;;;;;0.70;0.70;;;;;;;1.93;100.00;97830.22;6098445;19;20010;-75
2023/11/27 00:37:29;;;;;;;1.08;0.80;;;;;;;1.93;100.00;97825.56;6099837;19;20006;-74
2023/11/27 00:39:30;;;;;;;1.40;0.90;;;;;;;1.91;100.00;97825.13;6099934;19;20010;-75
2023/11/27 00:41:30;;;;;;;1.10;0.80;;;;;;;1.88;100.00;97819.50;6100176;19;20007;-75
2023/11/27 00:43:30;;;;;;;0.88;0.73;;;;;;;1.86;100.00;97824.53;6100830;19;20453;-74
2023/11/27 00:45:31;;;;;;;1.10;0.98;;;;;;;1.86;100.00;97817.13;6101477;19;20220;-75
2023/11/27 00:47:33;;;;;;;0.77;0.77;;;;;;;1.87;100.00;97823.38;6094598;19;20003;-75
2023/11/27 00:49:33;;;;;;;0.80;0.80;;;;;;;1.91;100.00;97827.84;6098828;19;19999;-75
2023/11/27 00:51:34;;;;;;;0.60;0.60;;;;;;;1.95;100.00;97822.50;6101020;19;20002;-75
2023/11/27 00:53:34;;;;;;;0.70;0.70;;;;;;;1.95;100.00;97827.94;6099473;19;20002;-74
2023/11/27 00:55:34;;;;;;;0.80;0.70;;;;;;;1.92;100.00;97825.91;6099814;19;20372;-75
2023/11/27 00:57:35;;;;;;;1.60;0.90;;;;;;;1.86;100.00;97824.53;6098187;19;20030;-75
2023/11/27 00:59:40;;;;;;;0.60;0.60;;;;;;;1.87;100.00;97826.09;6096641;19;20006;-75
2023/11/27 01:01:40;;;;;;;0.98;0.88;;;;;;;1.89;100.00;97813.72;6101072;19;20380;-75
2023/11/27 01:03:41;;;;;;;0.93;0.70;;;;;;;1.89;100.00;97813.72;6091483;19;20494;-75
2023/11/27 01:05:41;;;;;;;0.60;0.60;;;;;;;1.96;100.00;97813.16;6098729;19;20369;-74
2023/11/27 01:07:42;;;;;;;0.80;0.80;;;;;;;1.93;100.00;97808.41;6096930;19;20009;-74
2023/11/27 01:09:42;;;;;;;0.73;0.60;;;;;;;1.89;100.00;97808.25;6099622;19;20328;-75
2023/11/27 01:11:42;;;;;;;0.88;0.80;;;;;;;1.86;100.00;97805.44;6100100;19;20007;-75
2023/11/27 01:13:43;;;;;;;1.13;0.90;;;;;;;1.80;100.00;97804.84;6100497;19;20312;-75
2023/11/27 01:15:43;;;;;;;1.08;0.77;;;;;;;1.79;100.00;97797.00;6099918;19;20472;-75
2023/11/27 01:17:44;;;;;;;1.02;0.80;;;;;;;1.78;100.00;97795.41;6092823;19;19999;-75
2023/11/27 01:19:45;;;;;;;0.98;0.90;;;;;;;1.81;100.00;97800.97;6098463;19;20026;-76
2023/11/27 01:21:45;;;;;;;0.95;0.80;;;;;;;1.78;100.00;97796.19;6099801;19;20079;-75
2023/11/27 01:23:46;;;;;;;1.05;0.77;;;;;;;1.83;100.00;97803.38;6093890;19;20010;-75
2023/11/27 01:25:46;;;;;;;0.70;0.70;;;;;;;1.82;100.00;97804.50;6100007;19;20006;-75
2023/11/27 01:27:47;;;;;;;0.82;0.80;;;;;;;1.82;100.00;97801.75;6087657;19;19999;-74
2023/11/27 01:29:48;;;;;;;2.28;0.80;;;;;;;1.81;100.00;97797.44;6081929;19;20034;-75
2023/11/27 01:31:51;;;;;;;1.20;0.90;;;;;;;1.83;100.00;97800.66;6083357;19;20006;-75
2023/11/27 01:33:51;;;;;;;3.47;1.00;;;;;;;1.87;100.00;97790.66;6083140;19;20010;-75
2023/11/27 01:35:52;;;;;;;1.15;0.88;;;;;;;1.84;100.00;97791.34;6083630;19;20007;-75
2023/11/27 01:37:53;;;;;;;1.33;1.08;;;;;;;1.86;100.00;97789.06;6082866;19;20005;-75
2023/11/27 01:39:53;;;;;;;1.17;1.08;;;;;;;1.83;100.00;97787.00;6084959;19;20026;-75
2023/11/27 01:41:53;;;;;;;1.33;1.17;;;;;;;1.81;100.00;97776.41;6084485;19;20022;-75
2023/11/27 01:43:54;;;;;;;1.67;1.30;;;;;;;1.87;100.00;97772.34;6082700;19;20009;-75
2023/11/27 01:46:14;;;;;;;1.52;1.05;;;;;;;1.85;100.00;97784.75;6084116;19;20002;-75
2023/11/27 01:48:15;;;;;;;2.08;1.42;;;;;;;1.83;100.00;97767.91;5979570;19;2006297;-75
2023/11/27 01:50:15;;;;;;;1.48;1.33;;;;;;;1.87;100.00;97777.00;6083105;19;19998;-75
2023/11/27 01:52:16;;;;;;;1.70;1.50;;;;;;;1.87;100.00;97777.00;6080907;19;20127;-75
2023/11/27 01:54:17;;;;;;;1.73;1.45;;;;;;;1.87;100.00;97779.72;6082649;19;20014;-74
2023/11/27 01:56:20;;;;;;;1.92;1.73;;;;;;;1.85;100.00;97762.91;6083335;19;20462;-75
2023/11/27 01:58:20;;;;;;;2.10;1.73;;;;;;;1.87;100.00;97779.72;6081606;19;20210;-75
2023/11/27 02:00:22;;;;;;;1.95;1.70;;;;;;;1.82;100.00;97778.03;6082966;19;20026;-75
2023/11/27 02:02:23;;;;;;;1.70;1.60;;;;;;;1.86;100.00;97768.03;6082536;19;20458;-75
2023/11/27 02:04:23;;;;;;;1.85;1.58;;;;;;;1.83;100.00;97768.72;6082586;19;20003;-75
2023/11/27 02:06:24;;;;;;;3.03;1.80;;;;;;;1.82;100.00;97772.59;6083084;19;19999;-75
2023/11/27 02:08:24;;;;;;;2.92;1.88;;;;;;;1.83;100.00;97766.00;6082305;19;20006;-74
2023/11/27 02:10:25;;;;;;;1.70;1.50;;;;;;;1.84;100.00;97767.56;6083953;19;19998;-75
2023/11/27 02:12:26;;;;;;;2.80;2.15;;;;;;;1.80;100.00;97763.91;6082969;19;20066;-75
2023/11/27 02:14:26;;;;;;;1.75;1.48;;;;;;;1.78;100.00;97760.75;6082193;19;20002;-75
2023/11/27 02:16:26;;;;;;;2.47;1.70;;;;;;;1.78;100.00;97758.00;6082899;19;20450;-75
2023/11/27 02:18:28;;;;;;;1.75;1.65;;;;;;;1.75;100.00;97757.91;6081459;19;20467;-75
2023/11/27 02:20:28;;;;;;;2.85;1.80;;;;;;;1.75;100.00;97763.34;6082440;19;20007;-75
2023/11/27 02:22:28;;;;;;;3.60;1.80;;;;;;;1.74;100.00;97753.56;6080427;19;20137;-75
2023/11/27 02:24:29;;;;;;;2.08;1.70;;;;;;;1.75;100.00;97755.97;6079775;19;20011;-75
2023/11/27 02:26:29;;;;;;;2.70;1.88;;;;;;;1.73;100.00;97752.75;6081338;19;20032;-75
2023/11/27 02:28:29;;;;;;;2.13;1.92;;;;;;;1.71;100.00;97752.31;6091781;19;20447;-75
2023/11/27 02:30:30;;;;;;;2.08;1.63;;;;;;;1.69;100.00;97747.19;6098851;19;20003;-75
2023/11/27 02:32:30;;;;;;;2.45;1.83;;;;;;;1.72;100.00;97758.56;6098102;19;20002;-74
2023/11/27 02:34:30;;;;;;;2.20;1.70;;;;;;;1.72;100.00;97750.38;6095338;19;20032;-74
2023/11/27 02:36:38;;;;;;;1.55;1.45;;;;;;;1.71;100.00;97756.97;6097681;19;20030;-75
2023/11/27 02:38:38;;;;;;;1.33;1.23;;;;;;;1.72;100.00;97755.84;6096493;19;20062;-75
2023/11/27 02:40:39;;;;;;;1.60;1.35;;;;;;;1.70;100.00;97756.19;6098604;19;20492;-75
2023/11/27 02:42:39;;;;;;;2.22;1.65;;;;;;;1.71;100.00;97746.06;6098091;19;20049;-75
2023/11/27 02:44:40;;;;;;;1.60;1.30;;;;;;;1.77;100.00;97750.97;6096103;19;20023;-75
2023/11/27 02:46:41;;;;;;;4.03;1.50;;;;;;;1.74;100.00;97756.28;6097232;19;20040;-75
2023/11/27 02:48:42;;;;;;;1.50;1.30;;;;;;;1.72;100.00;97747.66;6095678;19;20094;-75
2023/11/27 02:50:43;;;;;;;1.80;1.33;;;;;;;1.73;100.00;97743.78;6097337;19;20011;-75
2023/11/27 02:52:43;;;;;;;1.98;1.42;;;;;;;1.72;100.00;97736.75;6098220;19;20011;-75
2023/11/27 02:54:44;;;;;;;1.38;1.20;;;;;;;1.74;100.00;97735.28;6097461;19;20529;-75
2023/11/27 02:56:44;;;;;;;2.92;1.42;;;;;;;1.72;100.00;97729.34;6102545;19;20305;-74
2023/11/27 02:58:44;;;;;;;1.83;1.23;;;;;;;1.71;100.00;97737.88;6101699;19;20408;-75
2023/11/27 03:00:45;;;;;;;1.48;1.10;;;;;;;1.68;100.00;97729.25;6102621;19;20006;-74
2023/11/27 03:02:45;;;;;;;1.17;0.88;;;;;;;1.66;100.00;97723.34;6102975;19;20391;-75
2023/11/27 03:04:46;;;;;;;1.23;1.05;;;;;;;1.66;100.00;97723.34;6103381;19;20066;-75
2023/11/27 03:06:46;;;;;;;3.00;1.20;;;;;;;1.67;100.00;97719.47;6103548;19;20434;-75
2023/11/27 03:08:46;;;;;;;1.77;1.00;;;;;;;1.69;100.00;97716.41;6100853;19;20031;-74
2023/11/27 03:10:47;;;;;;;1.98;1.30;;;;;;;1.69;100.00;97719.94;6103361;19;20259;-74
2023/11/27 03:12:47;;;;;;;1.23;1.00;;;;;;;1.65;100.00;97707.28;6103069;19;20270;-75
2023/11/27 03:14:48;;;;;;;1.20;0.98;;;;;;;1.65;100.00;97704.56;6102380;19;20002;-75
2023/11/27 03:16:48;;;;;;;0.93;0.88;;;;;;;1.66;100.00;97706.19;6102600;19;20040;-75
2023/11/27 03:18:48;;;;;;;1.23;1.10;;;;;;;1.66;100.00;97706.97;6099657;19;20463;-75
2023/11/27 03:20:49;;;;;;;1.98;1.20;;;;;;;1.63;100.00;97709.56;6102943;19;20033;-75
2023/11/27 03:22:49;;;;;;;1.08;0.98;;;;;;;1.61;100.00;97709.13;6101695;19;20049;-75
2023/11/27 03:24:49;;;;;;;1.05;0.98;;;;;;;1.59;100.00;97709.47;6101877;19;20007;-74
2023/11/27 03:26:50;;;;;;;1.90;1.05;;;;;;;1.57;100.00;97709.00;6102572;19;20105;-75
2023/11/27 03:28:50;;;;;;;1.23;1.10;;;;;;;1.59;100.00;97708.66;6100025;19;20038;-75
2023/11/27 03:30:50;;;;;;;1.13;1.00;;;;;;;1.62;100.00;97711.50;6100988;19;20325;-75
2023/11/27 03:32:51;;;;;;;1.10;1.00;;;;;;;1.65;100.00;97704.56;6101344;19;20014;-75
2023/11/27 03:34:51;;;;;;;1.10;1.00;;;;;;;1.63;100.00;97718.53;6101973;19;20116;-75
2023/11/27 03:36:51;;;;;;;1.20;1.10;;;;;;;1.60;100.00;97707.53;6100336;19;20006;-75
2023/11/27 03:38:52;;;;;;;1.60;1.10;;;;;;;1.59;100.00;97709.47;6099025;19;20026;-75
2023/11/27 03:40:52;;;;;;;1.75;1.20;;;;;;;1.56;100.00;97714.78;6099793;19;20411;-75
2023/11/27 03:42:52;;;;;;;1.52;1.17;;;;;;;1.55;100.00;97705.81;6101866;19;20014;-75
2023/11/27 03:44:53;;;;;;;1.30;1.20;;;;;;;1.52;100.00;97697.50;6101891;19;20006;-75
2023/11/27 03:46:53;;;;;;;2.28;1.30;;;;;;;1.54;100.00;97704.22;6101509;19;20001;-75
2023/11/27 03:48:54;;;;;;;1.70;1.17;;;;;;;1.55;100.00;97696.81;6099923;19;19995;-75
2023/11/27 03:50:54;;;;;;;1.30;1.20;;;;;;;1.53;100.00;97690.94;6099179;19;19999;-75
2023/11/27 03:52:54;;;;;;;1.75;1.30;;;;;;;1.54;100.00;97692.50;6102466;19;20007;-75
2023/11/27 03:54:55;;;;;;;1.50;1.13;;;;;;;1.51;100.00;97695.94;6101134;19;19999;-75
2023/11/27 03:56:55;;;;;;;1.17;1.08;;;;;;;1.51;100.00;97696.72;6100112;19;20025;-75
2023/11/27 03:58:55;;;;;;;1.38;1.20;;;;;;;1.59;100.00;97684.13;6097912;19;20355;-75
2023/11/27 04:00:57;;;;;;;1.30;1.20;;;;;;;1.62;100.00;97692.41;6100313;19;20481;-75
2023/11/27 04:02:57;;;;;;;1.90;1.70;;;;;;;1.64;100.00;97692.88;6101541;19;20093;-75
2023/11/27 04:04:58;;;;;;;1.80;1.30;;;;;;;1.60;100.00;97694.69;6099887;19;20052;-75
2023/11/27 04:07:00;;;;;;;1.92;1.33;;;;;;;1.57;100.00;97689.09;6094173;19;20286;-75
2023/11/27 04:09:00;;;;;;;2.00;1.35;;;;;;;1.53;100.00;97683.53;6099526;19;20006;-75
2023/11/27 04:11:02;;;;;;;4.38;1.63;;;;;;;1.49;100.00;97684.53;6097156;19;20425;-75
2023/11/27 04:13:02;;;;;;;3.03;1.60;;;;;;;1.49;100.00;97679.91;6094104;19;21836;-75
2023/11/27 04:15:04;;;;;;;1.55;1.23;;;;;;;1.47;100.00;97678.63;6092918;19;20011;-75
2023/11/27 04:17:04;;;;;;;2.00;1.50;;;;;;;1.44;100.00;97673.88;6100617;19;20313;-74
2023/11/27 04:19:05;;;;;;;5.60;1.20;;;;;;;1.47;100.00;97675.91;6099845;19;20002;-75
2023/11/27 04:21:06;;;;;;;1.85;1.10;;;;;;;1.42;100.00;97666.03;6098739;19;20040;-75
2023/11/27 04:23:06;;;;;;;2.13;1.40;;;;;;;1.44;100.00;97671.16;6098939;19;20511;-75
2023/11/27 04:25:07;;;;;;;1.40;1.10;;;;;;;1.46;100.00;97671.59;6095670;19;19999;-75
2023/11/27 04:27:07;;;;;;;1.38;1.13;;;;;;;1.45;100.00;97673.53;6093168;19;20017;-75
2023/11/27 04:29:07;;;;;;;1.20;1.10;;;;;;;1.44;100.00;97662.97;6096890;19;20331;-75
2023/11/27 04:31:08;;;;;;;1.38;1.27;;;;;;;1.46;100.00;97668.88;6100114;19;20386;-75
2023/11/27 04:33:08;;;;;;;1.60;1.20;;;;;;;1.45;100.00;97667.28;6101243;19;20449;-75
2023/11/27 04:35:09;;;;;;;1.60;1.30;;;;;;;1.48;100.00;97664.66;6100668;19;20010;-75
2023/11/27 04:37:11;;;;;;;2.88;1.17;;;;;;;1.47;100.00;97659.56;6101256;19;20041;-75
2023/11/27 04:39:11;;;;;;;1.33;1.20;;;;;;;1.48;100.00;97652.97;6099115;19;20002;-75
2023/11/27 04:41:12;;;;;;;1.58;1.33;;;;;;;1.46;100.00;97656.03;6099080;19;20320;-75
2023/11/27 04:43:12;;;;;;;1.60;1.00;;;;;;;1.45;100.00;97657.16;6100178;19;20006;-75
2023/11/27 04:45:13;;;;;;;1.60;1.30;;;;;;;1.42;100.00;97652.41;6100878;19;19999;-75
2023/11/27 04:47:14;;;;;;;1.75;1.30;;;;;;;1.43;100.00;97654.00;6100219;19;19999;-74
2023/11/27 04:49:14;;;;;;;1.30;1.10;;;;;;;1.42;100.00;97641.50;6100446;19;20006;-75
2023/11/27 04:51:14;;;;;;;1.90;1.25;;;;;;;1.45;100.00;97646.28;6100433;19;20081;-75
2023/11/27 04:53:15;;;;;;;2.85;1.55;;;;;;;1.47;100.00;97646.72;6100351;19;20003;-75
2023/11/27 04:55:15;;;;;;;1.20;1.10;;;;;;;1.44;100.00;97650.13;6101710;19;20014;-75
2023/11/27 04:57:15;;;;;;;1.85;1.23;;;;;;;1.45;100.00;97638.09;6100850;19;20459;-75
2023/11/27 04:59:16;;;;;;;2.25;1.40;;;;;;;1.47;100.00;97643.19;6099748;19;20011;-75
2023/11/27 05:01:16;;;;;;;1.70;1.30;;;;;;;1.52;100.00;97643.78;6101985;19;20002;-75
2023/11/27 05:03:17;;;;;;;1.42;1.20;;;;;;;1.53;100.00;97645.38;6099732;19;20022;-75
2023/11/27 05:05:17;;;;;;;1.48;1.30;;;;;;;1.51;100.00;97641.41;6099771;19;20439;-75
2023/11/27 05:07:17;;;;;;;1.58;1.20;;;;;;;1.52;100.00;97638.34;6099688;19;19998;-75
2023/11/27 05:09:18;;;;;;;1.85;1.55;;;;;;;1.50;100.00;97635.16;6100290;19;20003;-75
2023/11/27 05:11:22;;;;;;;2.22;1.50;;;;;;;1.51;100.00;97631.28;6100925;19;20014;-75
2023/11/27 05:13:23;;;;;;;1.83;1.33;;;;;;;1.49;100.00;97625.38;6099016;19;19999;-75
2023/11/27 05:15:24;;;;;;;1.90;1.50;;;;;;;1.49;100.00;97625.38;6100565;19;20003;-75
2023/11/27 05:17:24;;;;;;;2.47;1.70;;;;;;;1.49;100.00;97628.13;6097630;19;20043;-75
2023/11/27 05:19:24;;;;;;;1.77;1.33;;;;;;;1.49;100.00;97627.28;6099304;19;20015;-74
2023/11/27 05:21:25;;;;;;;3.95;2.30;;;;;;;1.48;100.00;97621.03;6097321;19;20010;-75
2023/11/27 05:23:25;;;;;;;3.38;1.80;;;;;;;1.49;100.00;97621.84;6098628;19;20378;-75
2023/11/27 05:25:25;;;;;;;3.70;1.75;;;;;;;1.52;100.00;97613.78;6099616;19;20018;-75
2023/11/27 05:27:26;;;;;;;5.03;2.50;;;;;;;1.52;100.00;97610.28;6085032;19;19995;-75
2023/11/27 05:29:26;;;;;;;2.25;1.85;;;;;;;1.54;100.00;97619.69;6098961;19;20010;-75
2023/11/27 05:31:26;;;;;;;3.05;2.40;;;;;;;1.54;100.00;97613.44;6098788;19;20090;-75
2023/11/27 05:33:27;;;;;;;5.28;2.45;;;;;;;1.51;100.00;97623.13;6094965;19;20553;-75
2023/11/27 05:35:27;;;;;;;3.25;2.00;;;;;;;1.51;100.00;97625.84;6099174;19;20014;-75
2023/11/27 05:37:28;;;;;;;2.90;2.20;;;;;;;1.51;100.00;97620.38;6097690;19;20006;-75
2023/11/27 05:39:29;;;;;;;2.85;2.20;;;;;;;1.49;100.00;97609.03;6096700;19;20159;-75
2023/11/27 05:41:29;;;;;;;2.65;1.90;;;;;;;1.48;100.00;97601.97;6099574;19;20013;-75
2023/11/27 05:43:31;;;;;;;2.47;2.20;;;;;;;1.51;100.00;97614.94;6098040;19;20019;-75
2023/11/27 05:45:32;;;;;;;5.37;2.10;;;;;;;1.54;100.00;97605.28;6099196;19;20554;-75
2023/11/27 05:47:32;;;;;;;3.38;2.58;;;;;;;1.51;100.00;97614.94;6096342;19;20640;-75
2023/11/27 05:49:33;;;;;;;3.65;2.70;;;;;;;1.50;100.00;97593.47;6097798;19;20339;-75
2023/11/27 05:51:37;;;;;;;3.75;2.28;;;;;;;1.54;100.00;97597.09;6098223;19;19995;-75
2023/11/27 05:53:37;;;;;;;4.50;2.83;;;;;;;1.52;100.00;97594.72;6098316;19;20006;-75
2023/11/27 05:55:41;;;;;;;5.32;2.60;;;;;;;1.52;100.00;97591.19;6095919;19;20323;-75
2023/11/27 05:57:41;;;;;;;3.42;2.60;;;;;;;1.50;100.00;97594.25;6097248;19;20014;-75
2023/11/27 05:59:42;;;;;;;4.53;2.95;;;;;;;1.48;100.00;97599.25;6098201;19;20010;-75
2023/11/27 06:01:42;;;;;;;5.28;3.60;;;;;;;1.46;100.00;97587.88;6098876;19;20009;-75
2023/11/27 06:03:43;;;;;;;6.43;2.92;;;;;;;1.46;100.00;97585.16;6097855;19;20014;-75
2023/11/27 06:05:43;;;;;;;4.82;2.88;;;;;;;1.45;100.00;97578.13;6097173;19;20363;-76
2023/11/27 06:07:45;;;;;;;4.03;3.33;;;;;;;1.44;100.00;97578.47;6093906;19;20426;-75
2023/11/27 06:09:45;;;;;;;5.57;3.78;;;;;;;1.43;100.00;97583.13;6097536;19;20526;-75
2023/11/27 06:11:46;;;;;;;5.00;3.03;;;;;;;1.41;100.00;97574.50;6096742;19;20222;-75
2023/11/27 06:13:46;;;;;;;6.05;3.58;;;;;;;1.40;100.00;97579.13;6097212;19;20044;-75
2023/11/27 06:15:47;;;;;;;6.68;3.17;;;;;;;1.37;100.00;97565.41;6097227;19;20006;-75
2023/11/27 06:17:47;;;;;;;4.82;3.97;;;;;;;1.35;100.00;97565.75;6096310;19;20026;-75
2023/11/27 06:19:48;;;;;;;5.40;3.28;;;;;;;1.36;100.00;97563.81;6097759;19;20002;-75
2023/11/27 06:21:48;;;;;;;6.35;3.60;;;;;;;1.36;100.00;97558.34;6098059;19;20009;-74
2023/11/27 06:23:51;;;;;;;5.35;3.38;;;;;;;1.38;100.00;97566.97;6096613;19;20006;-75
2023/11/27 06:25:52;;;;;;;4.90;3.30;;;;;;;1.36;100.00;97556.44;6098627;19;20338;-75
2023/11/27 06:27:53;;;;;;;5.30;3.70;;;;;;;1.38;100.00;97558.81;6085776;19;20440;-75
2023/11/27 06:29:53;;;;;;;5.70;3.47;;;;;;;1.38;100.00;97558.81;6078993;19;20014;-75
2023/11/27 06:31:54;;;;;;;7.68;3.70;;;;;;;1.35;100.00;97556.78;6081184;19;20034;-75
2023/11/27 06:33:54;;;;;;;5.97;3.88;;;;;;;1.35;100.00;97562.22;6079963;19;20046;-75
2023/11/27 06:35:54;;;;;;;5.38;3.40;;;;;;;1.34;100.00;97555.19;6081471;19;20026;-75
2023/11/27 06:37:55;;;;;;;6.13;4.13;;;;;;;1.36;100.00;97552.91;6077502;19;19998;-75
2023/11/27 06:39:55;;;;;;;5.13;3.78;;;;;;;1.34;100.00;97550.53;6079662;19;20509;-75
2023/11/27 06:41:56;;;;;;;5.68;3.72;;;;;;;1.33;100.00;97546.22;6078912;19;19999;-75
2023/11/27 06:43:57;;;;;;;6.85;3.53;;;;;;;1.34;100.00;97545.06;6078984;19;20373;-75
2023/11/27 06:45:57;;;;;;;6.35;3.97;;;;;;;1.31;100.00;97545.72;6079186;19;20010;-75
2023/11/27 06:47:57;;;;;;;12.65;4.68;;;;;;;1.32;100.00;97541.06;6078456;19;19999;-75
2023/11/27 06:49:58;;;;;;;4.30;3.25;;;;;;;1.30;100.00;97540.63;6078540;19;20032;-75
2023/11/27 06:51:58;;;;;;;7.38;4.28;;;;;;;1.29;100.00;97536.31;6079246;19;20014;-75
2023/11/27 06:53:59;;;;;;;10.63;3.90;;;;;;;1.30;100.00;97530.53;6079312;19;20231;-75
2023/11/27 06:55:59;;;;;;;9.48;4.10;;;;;;;1.31;100.00;97536.78;6080633;19;20422;-75
2023/11/27 06:57:59;;;;;;;7.25;3.25;;;;;;;1.29;100.00;97528.94;6080094;19;20365;-75
2023/11/27 07:00:00;;;;;;;11.35;3.97;;;;;;;1.31;100.00;97526.66;6081600;19;20025;-75
2023/11/27 07:02:00;;;;;;;4.88;2.90;;;;;;;1.28;100.00;97523.84;6081607;19;20014;-75
2023/11/27 07:04:00;;;;;;;9.55;3.70;;;;;;;1.28;100.00;97516.44;6077530;19;20345;-75
2023/11/27 07:06:00;;;;;;;8.75;3.70;;;;;;;1.28;100.00;97518.38;6081138;19;20327;-75
2023/11/27 07:08:01;;;;;;;5.65;3.28;;;;;;;1.27;100.00;97519.53;6078961;19;20345;-75
2023/11/27 07:10:02;;;;;;;7.50;3.65;;;;;;;1.24;100.00;97514.72;6080117;19;20321;-75
2023/11/27 07:12:03;;;;;;;11.63;3.58;;;;;;;1.24;100.00;97521.00;6080128;19;20383;-75
2023/11/27 07:14:04;;;;;;;9.35;3.72;;;;;;;1.27;100.00;97522.25;6079926;19;20652;-75
2023/11/27 07:16:05;;;;;;;6.55;3.78;;;;;;;1.28;100.00;97524.63;6079966;19;20003;-75
2023/11/27 07:18:05;;;;;;;7.45;4.07;;;;;;;1.28;100.00;97521.09;6079577;19;20054;-75
2023/11/27 07:20:06;;;;;;;8.65;4.05;;;;;;;1.28;100.00;97505.56;6080701;19;20070;-75
2023/11/27 07:22:07;;;;;;;5.78;3.83;;;;;;;1.29;100.00;97504.41;6079114;19;20587;-75
2023/11/27 07:24:07;;;;;;;6.93;3.95;;;;;;;1.30;100.00;97507.94;6080008;19;20334;-75
2023/11/27 07:26:08;;;;;;;9.93;4.28;;;;;;;1.32;100.00;97501.00;6080453;19;20541;-75
2023/11/27 07:28:08;;;;;;;5.78;3.80;;;;;;;1.32;100.00;97501.00;6084565;19;20030;-75
2023/11/27 07:30:09;;;;;;;4.20;3.20;;;;;;;1.34;100.00;97495.22;6096578;19;20273;-75
2023/11/27 07:32:09;;;;;;;12.75;3.88;;;;;;;1.34;100.00;97484.31;6095739;19;20357;-74
2023/11/27 07:34:11;;;;;;;5.22;3.10;;;;;;;1.34;100.00;97487.84;6096370;19;20070;-75
2023/11/27 07:36:11;;;;;;;4.28;2.72;;;;;;;1.34;100.00;97487.06;6096058;19;20462;-75
2023/11/27 07:38:12;;;;;;;5.60;3.80;;;;;;;1.34;100.00;97487.84;6094779;19;20029;-75
2023/11/27 07:40:14;;;;;;;4.50;2.92;;;;;;;1.34;100.00;97481.59;6098261;19;20006;-75
2023/11/27 07:42:14;;;;;;;3.40;2.88;;;;;;;1.35;100.00;97478.53;6102248;19;20003;-75
2023/11/27 07:44:15;;;;;;;7.40;3.03;;;;;;;1.35;100.00;97483.97;6101814;19;20007;-75
2023/11/27 07:46:15;;;;;;;4.68;3.10;;;;;;;1.34;100.00;97473.44;6101207;19;20050;-75
2023/11/27 07:48:16;;;;;;;5.13;3.17;;;;;;;1.32;100.00;97473.75;6101245;19;20328;-75
2023/11/27 07:50:16;;;;;;;5.32;3.30;;;;;;;1.33;100.00;97466.38;6101709;19;20019;-75
2023/11/27 07:52:16;;;;;;;8.35;3.30;;;;;;;1.33;100.00;97467.19;6102545;19;19991;-75
2023/11/27 07:54:17;;;;;;;5.65;3.58;;;;;;;1.34;100.00;97466.03;6102189;19;20325;-75
2023/11/27 07:56:32;;;;;;;6.43;4.20;;;;;;;1.33;100.00;97458.22;6102067;19;20024;-74
2023/11/27 07:58:32;;;;;;;4.60;3.40;;;;;;;1.34;100.00;97451.63;6100364;19;20002;-75
2023/11/27 08:00:33;;;;;;;5.68;3.72;;;;;;;1.36;100.00;97452.84;6101782;19;20009;-75
2023/11/27 08:02:34;;;;;;;6.20;3.78;;;;;;;1.38;100.00;97444.34;6101961;19;20021;-75
2023/11/27 08:04:34;;;;;;;11.23;4.63;;;;;;;1.42;100.00;97449.91;6100884;19;20358;-75
2023/11/27 08:06:34;;;;;;;10.07;5.55;;;;;;;1.44;100.00;97442.97;6099004;19;20520;-75
2023/11/27 08:08:36;;;;;;;13.32;7.43;;;;;;;1.44;100.00;97440.25;6099849;19;20313;-75
2023/11/27 08:10:37;;;;;;;13.75;7.85;;;;;;;1.46;100.00;97445.34;6101503;19;20005;-75
2023/11/27 08:12:37;;;;;;;18.52;8.48;;;;;;;1.48;100.00;97437.63;6102734;19;19994;-75
2023/11/27 08:14:37;;;;;;;18.20;9.57;;;;;;;1.51;100.00;97429.56;6100978;19;20009;-75
2023/11/27 08:16:38;;;;;;;20.58;11.93;;;;;;;1.53;100.00;97421.03;6101862;19;20074;-75
2023/11/27 08:18:38;;;;;;;22.30;12.43;;;;;;;1.58;100.00;97423.53;6099931;19;20006;-75
2023/11/27 08:20:39;;;;;;;22.15;10.52;;;;;;;1.60;100.00;97430.22;6100875;19;20030;-75
2023/11/27 08:22:39;;;;;;;18.67;9.98;;;;;;;1.63;100.00;97421.34;6100830;19;20384;-75
2023/11/27 08:24:40;;;;;;;15.52;9.57;;;;;;;1.67;100.00;97422.25;6100765;19;20548;-75
2023/11/27 08:26:49;;;;;;;14.90;8.57;;;;;;;1.67;100.00;97416.00;6100829;19;20009;-75
2023/11/27 08:28:49;;;;;;;14.93;7.97;;;;;;;1.72;100.00;97407.56;6099901;19;20358;-74
2023/11/27 08:30:50;;;;;;;15.10;8.95;;;;;;;1.74;100.00;97413.47;6101005;19;19998;-75
2023/11/27 08:32:50;;;;;;;17.50;9.63;;;;;;;1.77;100.00;97410.06;6100394;19;20102;-75
2023/11/27 08:34:50;;;;;;;14.15;9.10;;;;;;;1.78;100.00;97411.63;6099963;19;20017;-75
2023/11/27 08:36:51;;;;;;;14.35;8.35;;;;;;;1.80;100.00;97405.84;6101163;19;20009;-75
2023/11/27 08:38:57;;;;;;;14.57;8.93;;;;;;;1.82;100.00;97401.63;6099741;19;20888;-75
2023/11/27 08:40:58;;;;;;;12.07;8.32;;;;;;;1.88;100.00;97402.16;6099089;19;20010;-75
2023/11/27 08:43:00;;;;;;;14.10;8.65;;;;;;;1.89;100.00;97403.75;6100367;19;20013;-75
2023/11/27 08:45:06;;;;;;;12.10;6.63;;;;;;;1.95;100.00;97394.19;6100939;19;20015;-75
2023/11/27 08:47:07;;;;;;;11.82;7.55;;;;;;;1.98;100.00;97386.09;6101235;19;20018;-75
2023/11/27 08:49:07;;;;;;;7.32;5.20;;;;;;;2.01;100.00;97384.63;6097971;19;20007;-75
2023/11/27 08:51:08;;;;;;;10.95;6.30;;;;;;;2.02;100.00;97378.00;6100074;19;20003;-75
2023/11/27 08:53:09;;;;;;;8.88;5.60;;;;;;;2.01;100.00;97373.72;6096784;19;20002;-75
2023/11/27 08:55:10;;;;;;;8.25;5.93;;;;;;;2.01;100.00;97370.97;6100297;19;20342;-75
2023/11/27 08:57:10;;;;;;;8.02;5.72;;;;;;;2.04;100.00;97372.22;6099756;19;20006;-74
2023/11/27 08:59:11;;;;;;;6.97;4.72;;;;;;;2.04;100.00;97374.94;6099037;19;20006;-75
2023/11/27 09:01:12;;;;;;;8.40;4.47;;;;;;;2.02;100.00;97377.22;6100558;19;20318;-75
2023/11/27 09:03:12;;;;;;;7.68;5.22;;;;;;;2.00;100.00;97372.13;6099377;19;20010;-75
2023/11/27 09:05:13;;;;;;;7.15;3.70;;;;;;;2.02;100.00;97377.22;6099396;19;20018;-75
2023/11/27 09:07:13;;;;;;;6.65;4.43;;;;;;;2.01;100.00;97372.91;6101050;19;20015;-75
2023/11/27 09:09:13;;;;;;;8.25;4.40;;;;;;;2.01;100.00;97376.44;6098395;19;20074;-75
2023/11/27 09:11:14;;;;;;;5.80;4.18;;;;;;;2.00;100.00;97374.06;6100191;19;20007;-75
2023/11/27 09:13:15;;;;;;;4.57;3.25;;;;;;;2.02;100.00;97372.56;6100105;19;20002;-75
2023/11/27 09:15:19;;;;;;;8.00;3.30;;;;;;;2.01;100.00;97370.97;6100247;19;20009;-74
2023/11/27 09:17:20;;;;;;;5.43;3.90;;;;;;;2.02;100.00;97369.84;6098064;19;20002;-75
2023/11/27 09:19:20;;;;;;;6.57;4.22;;;;;;;2.04;100.00;97362.09;6099466;19;20033;-75
2023/11/27 09:21:21;;;;;;;8.00;3.60;;;;;;;2.04;100.00;97370.28;6098150;19;20089;-75
2023/11/27 09:23:21;;;;;;;6.40;3.80;;;;;;;2.03;100.00;97362.44;6100428;19;20003;-74
2023/11/27 09:25:21;;;;;;;5.18;3.50;;;;;;;2.08;100.00;97368.44;6099685;19;20363;-74
2023/11/27 09:27:22;;;;;;;5.07;3.33;;;;;;;2.06;100.00;97365.25;6098371;19;19999;-74